Time;durP1;ratioP1;P1;durP2;ratioP2;P2;SDS_P1;SDS_P2;PMS_P1;PMS_P2;Temp;Humidity;BMP_temperature;BMP_pressure;BME280_temperature;BME280_humidity;BME280_pressure;Samples;Min_cycle;Max_cycle;Signal;HPM_P1;HPM_P2
2023/12/06 00:00:37;;;;;;;33.38;12.57;;;2.50;99.90;;;;;;5013415;28;20037;-80
2023/12/06 00:03:03;;;;;;;34.00;12.60;;;2.40;99.90;;;;;;5013805;28;20113;-79
2023/12/06 00:05:29;;;;;;;29.33;12.13;;;2.50;99.90;;;;;;5014695;28;20417;-79
2023/12/06 00:07:55;;;;;;;33.15;12.70;;;2.50;99.90;;;;;;5013134;28;20030;-79
2023/12/06 00:10:20;;;;;;;29.90;11.85;;;2.50;99.90;;;;;;5013341;28;20621;-79
2023/12/06 00:12:46;;;;;;;30.35;11.18;;;2.50;99.90;;;;;;5014871;28;20018;-79
2023/12/06 00:15:11;;;;;;;32.53;11.82;;;2.50;99.90;;;;;;5014521;28;20045;-79
2023/12/06 00:17:37;;;;;;;31.13;12.75;;;2.50;99.90;;;;;;5013458;28;20018;-79
2023/12/06 00:20:03;;;;;;;32.90;13.30;;;2.40;99.90;;;;;;5014522;28;20049;-79
2023/12/06 00:22:28;;;;;;;30.60;12.45;;;2.40;99.90;;;;;;5012729;28;20021;-79
2023/12/06 00:24:54;;;;;;;32.92;13.25;;;2.50;99.90;;;;;;5013015;28;20080;-79
2023/12/06 00:27:22;;;;;;;31.92;12.77;;;2.50;99.90;;;;;;5013042;28;20080;-79
2023/12/06 00:29:48;;;;;;;34.80;12.88;;;2.50;99.90;;;;;;5015030;28;20084;-78
2023/12/06 00:32:14;;;;;;;29.73;11.38;;;2.50;99.90;;;;;;5013044;28;20022;-78
2023/12/06 00:34:39;;;;;;;34.88;13.02;;;2.50;99.90;;;;;;5014236;28;20079;-79
2023/12/06 00:37:05;;;;;;;29.20;12.27;;;2.50;99.90;;;;;;5013044;28;20393;-79
2023/12/06 00:39:30;;;;;;;29.98;12.48;;;2.50;99.90;;;;;;5012811;28;20022;-79
2023/12/06 00:41:56;;;;;;;32.30;12.02;;;2.50;99.90;;;;;;5012867;28;20025;-79
2023/12/06 00:44:22;;;;;;;32.95;13.38;;;2.60;99.90;;;;;;5012933;28;20014;-79
2023/12/06 00:46:47;;;;;;;31.88;12.77;;;2.60;99.90;;;;;;5012617;28;20022;-79
2023/12/06 00:49:13;;;;;;;34.13;12.63;;;3.50;99.90;;;;;;5012696;28;20555;-79
2023/12/06 00:51:39;;;;;;;33.95;11.65;;;2.60;99.90;;;;;;5012841;28;20073;-79
2023/12/06 00:54:05;;;;;;;34.10;12.32;;;2.50;99.90;;;;;;5013189;28;20068;-79
2023/12/06 00:56:31;;;;;;;32.03;11.77;;;2.50;99.90;;;;;;5012285;28;20030;-79
2023/12/06 00:58:56;;;;;;;33.88;12.10;;;2.60;99.90;;;;;;5012596;28;20108;-79
2023/12/06 01:01:22;;;;;;;30.48;12.10;;;2.60;99.90;;;;;;5013941;28;20044;-78
2023/12/06 01:03:47;;;;;;;27.67;11.63;;;2.60;99.90;;;;;;5014646;28;20080;-79
2023/12/06 01:06:13;;;;;;;27.08;10.73;;;2.60;99.90;;;;;;5016652;28;20438;-79
2023/12/06 01:08:38;;;;;;;28.27;12.15;;;2.60;99.90;;;;;;5016366;28;20482;-79
2023/12/06 01:11:04;;;;;;;24.20;10.48;;;2.60;99.90;;;;;;5018230;28;20034;-79
2023/12/06 01:13:30;;;;;;;32.30;10.95;;;2.60;99.90;;;;;;5017855;28;20447;-79
2023/12/06 01:15:56;;;;;;;32.58;11.30;;;2.70;99.90;;;;;;5016680;28;20026;-79
2023/12/06 01:18:21;;;;;;;27.15;10.43;;;2.70;99.90;;;;;;5017765;28;20025;-79
2023/12/06 01:20:47;;;;;;;27.80;10.73;;;2.70;99.90;;;;;;5017582;28;20022;-79
2023/12/06 01:23:13;;;;;;;27.55;10.85;;;2.70;99.90;;;;;;5016472;28;20551;-79
2023/12/06 01:25:38;;;;;;;26.17;10.82;;;2.70;99.90;;;;;;5017325;28;20034;-79
2023/12/06 01:28:04;;;;;;;25.98;10.23;;;2.70;99.90;;;;;;5017985;28;20026;-79
2023/12/06 01:30:29;;;;;;;23.77;10.25;;;2.80;99.90;;;;;;5015801;28;20025;-79
2023/12/06 01:32:55;;;;;;;25.13;10.15;;;2.70;99.90;;;;;;5017433;28;20417;-79
2023/12/06 01:35:21;;;;;;;22.55;9.57;;;2.80;99.90;;;;;;5016219;28;20065;-79
2023/12/06 01:37:47;;;;;;;26.85;9.60;;;2.80;99.90;;;;;;5016066;28;20080;-79
2023/12/06 01:40:13;;;;;;;23.15;9.73;;;2.80;99.90;;;;;;5017176;28;20026;-79
2023/12/06 01:42:38;;;;;;;27.30;9.80;;;2.80;99.90;;;;;;5016162;28;20028;-78
2023/12/06 01:45:05;;;;;;;22.05;9.88;;;2.80;99.90;;;;;;5017275;28;20022;-78
2023/12/06 01:47:33;;;;;;;23.60;9.48;;;2.80;99.90;;;;;;5016156;28;20033;-78
2023/12/06 01:50:03;;;;;;;22.80;9.65;;;2.80;99.90;;;;;;5015567;28;20026;-77
2023/12/06 01:52:29;;;;;;;22.83;9.10;;;2.80;99.90;;;;;;5016958;28;20048;-77
2023/12/06 01:54:58;;;;;;;18.98;8.30;;;2.80;99.90;;;;;;5015708;28;20018;-77
2023/12/06 01:57:25;;;;;;;21.90;8.82;;;2.90;99.90;;;;;;5017612;28;20053;-77
2023/12/06 01:59:52;;;;;;;23.95;8.90;;;2.90;99.90;;;;;;5016640;28;20025;-77
2023/12/06 02:02:18;;;;;;;22.20;9.18;;;2.80;99.90;;;;;;5015663;28;20073;-77
2023/12/06 02:04:44;;;;;;;21.00;9.20;;;2.80;99.90;;;;;;5015367;28;20429;-77
2023/12/06 02:07:11;;;;;;;20.00;8.80;;;2.80;99.90;;;;;;5015133;28;20018;-77
2023/12/06 02:09:36;;;;;;;19.05;9.20;;;2.80;99.90;;;;;;5016735;28;20404;-77
2023/12/06 02:12:02;;;;;;;19.15;9.02;;;2.80;99.90;;;;;;5015343;28;20021;-77
2023/12/06 02:14:33;;;;;;;21.75;8.80;;;2.90;99.90;;;;;;5016559;28;20363;-77
2023/12/06 02:17:00;;;;;;;22.88;9.32;;;2.90;99.90;;;;;;5016514;28;20098;-77
2023/12/06 02:19:27;;;;;;;19.45;9.30;;;2.90;99.90;;;;;;5016533;28;20037;-77
2023/12/06 02:21:54;;;;;;;18.83;8.52;;;2.90;99.90;;;;;;5016651;28;20504;-77
2023/12/06 02:24:19;;;;;;;20.50;8.85;;;2.90;99.90;;;;;;5016992;28;20105;-77
2023/12/06 02:26:45;;;;;;;20.05;9.00;;;2.90;99.90;;;;;;5016417;28;20080;-77
2023/12/06 02:29:11;;;;;;;16.65;8.18;;;3.00;99.90;;;;;;5014980;28;20022;-77
2023/12/06 02:31:36;;;;;;;21.60;9.32;;;3.00;99.90;;;;;;5016232;28;20033;-77
2023/12/06 02:34:09;;;;;;;21.30;8.70;;;3.00;99.90;;;;;;5016224;28;20474;-77
2023/12/06 02:36:35;;;;;;;20.77;9.18;;;3.00;99.90;;;;;;5016752;28;20026;-77
2023/12/06 02:39:01;;;;;;;18.58;7.95;;;3.00;99.90;;;;;;5014832;28;20516;-77
2023/12/06 02:41:28;;;;;;;19.92;8.05;;;3.00;99.90;;;;;;5014715;28;20049;-77
2023/12/06 02:43:54;;;;;;;15.90;7.47;;;3.00;99.90;;;;;;5016178;28;20022;-77
2023/12/06 02:46:19;;;;;;;18.05;8.10;;;3.00;99.90;;;;;;5015650;28;20041;-77
2023/12/06 02:48:45;;;;;;;18.27;8.30;;;3.00;99.90;;;;;;5014440;28;20048;-77
2023/12/06 02:51:10;;;;;;;21.75;8.65;;;3.00;99.90;;;;;;5014630;28;20516;-77
2023/12/06 02:53:36;;;;;;;16.90;8.10;;;3.00;99.90;;;;;;5014657;28;20018;-77
2023/12/06 02:56:01;;;;;;;18.27;8.23;;;3.10;99.90;;;;;;5014703;28;20505;-77
2023/12/06 02:58:27;;;;;;;19.33;8.18;;;3.10;99.90;;;;;;5015685;28;20029;-77
2023/12/06 03:00:52;;;;;;;19.15;8.65;;;3.10;99.90;;;;;;5014508;28;20025;-77
2023/12/06 03:03:18;;;;;;;16.65;7.88;;;;;;;;;;5014292;28;20037;-77
2023/12/06 03:05:44;;;;;;;15.57;7.38;;;3.10;99.90;;;;;;5014165;28;20113;-77
2023/12/06 03:08:14;;;;;;;15.68;7.60;;;3.10;99.90;;;;;;5014314;28;20385;-77
2023/12/06 03:10:39;;;;;;;20.35;7.72;;;3.10;99.90;;;;;;5014111;28;20041;-77
2023/12/06 03:13:05;;;;;;;19.65;8.13;;;3.10;99.90;;;;;;5015413;28;20049;-77
2023/12/06 03:15:30;;;;;;;15.80;7.30;;;3.10;99.90;;;;;;5014094;28;20112;-77
2023/12/06 03:17:56;;;;;;;19.63;8.13;;;3.20;99.90;;;;;;5015413;28;20037;-77
2023/12/06 03:20:21;;;;;;;19.15;8.32;;;3.20;99.90;;;;;;5015366;28;20091;-77
2023/12/06 03:22:47;;;;;;;14.20;7.05;;;3.20;99.90;;;;;;5015511;28;20029;-77
2023/12/06 03:25:12;;;;;;;18.35;7.97;;;3.20;99.90;;;;;;5013888;28;20436;-77
2023/12/06 03:27:38;;;;;;;15.10;7.03;;;3.20;99.90;;;;;;5014729;28;20037;-77
2023/12/06 03:30:06;;;;;;;16.88;7.00;;;3.20;99.90;;;;;;5013653;28;20018;-77
2023/12/06 03:32:31;;;;;;;18.42;7.65;;;3.20;99.90;;;;;;5015130;28;20473;-77
2023/12/06 03:34:57;;;;;;;17.27;7.28;;;3.20;99.90;;;;;;5013967;28;20084;-77
2023/12/06 03:37:22;;;;;;;14.13;6.97;;;3.20;99.90;;;;;;5013562;28;20021;-77
2023/12/06 03:39:48;;;;;;;15.63;7.03;;;3.20;99.90;;;;;;5013491;28;20022;-77
2023/12/06 03:42:13;;;;;;;13.10;6.80;;;3.20;99.90;;;;;;5013742;28;20018;-77
2023/12/06 03:44:39;;;;;;;17.15;6.25;;;3.20;99.90;;;;;;5014947;28;20026;-77
2023/12/06 03:47:05;;;;;;;17.63;7.63;;;3.20;99.90;;;;;;5014947;28;20024;-77
2023/12/06 03:49:31;;;;;;;16.10;7.55;;;3.20;99.90;;;;;;5013569;28;20034;-77
2023/12/06 03:52:07;;;;;;;14.07;6.50;;;3.20;99.90;;;;;;5013552;28;20029;-77
2023/12/06 03:54:33;;;;;;;15.32;6.65;;;3.20;99.90;;;;;;5014804;28;20101;-79
2023/12/06 03:56:59;;;;;;;17.00;7.43;;;3.20;99.90;;;;;;5014982;28;20064;-79
2023/12/06 03:59:25;;;;;;;17.00;7.47;;;3.30;99.90;;;;;;5014812;28;20045;-79
2023/12/06 04:01:51;;;;;;;14.38;6.32;;;3.30;99.90;;;;;;5015248;28;20036;-78
2023/12/06 04:04:16;;;;;;;13.57;6.72;;;3.30;99.90;;;;;;5015268;28;20033;-79
2023/12/06 04:06:42;;;;;;;16.20;7.47;;;3.30;99.90;;;;;;5013309;28;20033;-79
2023/12/06 04:09:07;;;;;;;12.02;6.15;;;3.30;99.90;;;;;;5013093;28;20433;-78
2023/12/06 04:11:33;;;;;;;15.93;7.47;;;3.30;99.90;;;;;;5014544;28;20064;-79
2023/12/06 04:13:59;;;;;;;14.75;6.43;;;3.30;99.90;;;;;;5013238;28;20410;-79
2023/12/06 04:16:24;;;;;;;17.05;6.78;;;3.30;99.90;;;;;;5013081;28;20022;-79
2023/12/06 04:18:50;;;;;;;17.38;7.32;;;3.30;99.90;;;;;;5014318;28;20017;-79
2023/12/06 04:21:16;;;;;;;17.90;6.82;;;3.30;99.90;;;;;;5012928;28;20022;-79
2023/12/06 04:23:42;;;;;;;14.98;6.53;;;3.30;99.90;;;;;;5013015;28;20030;-79
2023/12/06 04:26:07;;;;;;;16.63;7.22;;;3.30;99.90;;;;;;5013987;28;20450;-79
2023/12/06 04:28:33;;;;;;;16.25;6.53;;;3.40;99.90;;;;;;5014348;28;20022;-79
2023/12/06 04:30:58;;;;;;;16.73;7.03;;;3.40;99.90;;;;;;5013663;28;20033;-79
2023/12/06 04:33:24;;;;;;;12.07;6.35;;;3.50;99.90;;;;;;5012894;28;20026;-79
2023/12/06 04:35:50;;;;;;;15.98;6.60;;;3.50;99.90;;;;;;5013014;28;20026;-79
2023/12/06 04:38:15;;;;;;;14.85;7.32;;;3.50;99.90;;;;;;5013834;28;20026;-79
2023/12/06 04:40:41;;;;;;;14.80;6.18;;;3.50;99.90;;;;;;5013978;28;20109;-79
2023/12/06 04:43:06;;;;;;;13.77;6.55;;;3.50;99.90;;;;;;5012605;28;20030;-79
2023/12/06 04:45:32;;;;;;;13.90;6.45;;;3.50;99.90;;;;;;5014005;28;20436;-79
2023/12/06 04:47:58;;;;;;;14.07;6.15;;;3.50;99.90;;;;;;5013867;28;20382;-79
2023/12/06 04:50:23;;;;;;;18.63;7.50;;;3.50;99.90;;;;;;5014381;28;20018;-79
2023/12/06 04:52:49;;;;;;;15.77;7.45;;;3.60;99.90;;;;;;5013852;28;20018;-79
2023/12/06 04:55:14;;;;;;;12.88;6.03;;;3.60;99.90;;;;;;5012780;28;20030;-79
2023/12/06 04:57:40;;;;;;;16.80;6.30;;;3.60;99.90;;;;;;5012578;28;20478;-79
2023/12/06 05:00:08;;;;;;;12.45;6.40;;;3.60;99.90;;;;;;5013605;28;20037;-79
2023/12/06 05:02:34;;;;;;;11.05;5.93;;;3.60;99.90;;;;;;5012670;28;20018;-79
2023/12/06 05:05:00;;;;;;;13.70;6.32;;;3.60;99.90;;;;;;5013501;28;20057;-79
2023/12/06 05:07:25;;;;;;;11.35;5.90;;;3.50;99.90;;;;;;5014166;28;20022;-79
2023/12/06 05:09:51;;;;;;;14.13;6.15;;;3.60;99.90;;;;;;5013193;28;20034;-78
2023/12/06 05:12:16;;;;;;;13.77;5.55;;;3.60;99.90;;;;;;5014131;28;20092;-79
2023/12/06 05:14:43;;;;;;;20.85;6.75;;;3.60;99.90;;;;;;5013875;28;20091;-79
2023/12/06 05:17:08;;;;;;;17.40;7.10;;;3.70;99.90;;;;;;5013945;28;20445;-79
2023/12/06 05:19:34;;;;;;;15.35;5.85;;;3.60;99.90;;;;;;5012078;28;20057;-79
2023/12/06 05:21:59;;;;;;;14.05;6.35;;;3.70;99.90;;;;;;5014235;28;20057;-79
2023/12/06 05:24:27;;;;;;;11.52;5.72;;;3.60;99.90;;;;;;5012368;28;20033;-79
2023/12/06 05:26:53;;;;;;;15.55;6.43;;;3.70;99.90;;;;;;5014026;28;20490;-79
2023/12/06 05:29:18;;;;;;;11.75;6.63;;;3.70;99.90;;;;;;5014006;28;20025;-79
2023/12/06 05:31:44;;;;;;;15.93;6.55;;;3.60;99.90;;;;;;5012474;28;20026;-79
2023/12/06 05:34:09;;;;;;;13.18;5.75;;;3.60;99.90;;;;;;5013539;28;20018;-79
2023/12/06 05:36:35;;;;;;;14.80;5.75;;;3.60;99.90;;;;;;5012514;28;20116;-78
2023/12/06 05:39:00;;;;;;;17.38;6.95;;;3.60;99.90;;;;;;5013520;28;20037;-76
2023/12/06 05:41:26;;;;;;;14.48;5.97;;;3.70;99.90;;;;;;5012326;28;20033;-76
2023/12/06 05:43:52;;;;;;;14.63;6.47;;;3.70;99.90;;;;;;5012342;28;20018;-76
2023/12/06 05:46:18;;;;;;;11.73;6.20;;;3.70;99.90;;;;;;5013364;28;20072;-76
2023/12/06 05:48:43;;;;;;;13.95;6.75;;;3.70;99.90;;;;;;5012599;28;20018;-76
2023/12/06 05:51:10;;;;;;;16.67;6.40;;;3.70;99.90;;;;;;5014239;28;20022;-76
2023/12/06 05:53:36;;;;;;;13.10;6.68;;;3.70;99.90;;;;;;5015948;28;20424;-76
2023/12/06 05:56:02;;;;;;;16.10;6.25;;;3.70;99.90;;;;;;5017552;28;20104;-76
2023/12/06 05:58:28;;;;;;;12.15;6.10;;;3.70;99.90;;;;;;5015709;28;20374;-76
2023/12/06 06:00:54;;;;;;;15.95;6.22;;;3.70;99.90;;;;;;5015625;28;20061;-76
2023/12/06 06:03:20;;;;;;;17.20;6.50;;;3.70;99.90;;;;;;5016729;28;20060;-75
2023/12/06 06:05:45;;;;;;;14.93;6.50;;;3.70;99.90;;;;;;5015445;28;20080;-76
2023/12/06 06:08:11;;;;;;;13.43;5.75;;;3.70;99.90;;;;;;5015732;28;20089;-76
2023/12/06 06:10:36;;;;;;;19.77;6.82;;;3.70;99.90;;;;;;5016449;28;20045;-76
2023/12/06 06:13:02;;;;;;;20.67;6.25;;;3.70;99.90;;;;;;5016328;28;20033;-75
2023/12/06 06:15:27;;;;;;;17.00;7.00;;;3.70;99.90;;;;;;5016623;28;20504;-76
2023/12/06 06:17:53;;;;;;;17.58;6.60;;;3.70;99.90;;;;;;5015214;28;20116;-75
2023/12/06 06:20:18;;;;;;;15.35;6.47;;;3.70;99.90;;;;;;5016703;28;20026;-75
2023/12/06 06:22:44;;;;;;;14.30;6.15;;;3.70;99.90;;;;;;5016484;28;20104;-75
2023/12/06 06:25:10;;;;;;;17.02;6.35;;;3.80;99.90;;;;;;5014750;28;20030;-76
2023/12/06 06:27:36;;;;;;;18.33;6.53;;;3.70;99.90;;;;;;5015951;28;20032;-76
2023/12/06 06:30:01;;;;;;;16.10;6.43;;;3.70;99.90;;;;;;5015885;28;20018;-76
2023/12/06 06:32:27;;;;;;;14.82;6.47;;;3.80;99.90;;;;;;5015827;28;20025;-75
2023/12/06 06:34:52;;;;;;;15.90;6.07;;;3.80;99.90;;;;;;5014552;28;20393;-76
2023/12/06 06:37:18;;;;;;;13.05;5.70;;;3.80;99.90;;;;;;5015737;28;20022;-76
2023/12/06 06:39:44;;;;;;;17.48;6.65;;;3.80;99.90;;;;;;5014349;28;20022;-76
2023/12/06 06:42:09;;;;;;;17.30;5.90;;;3.80;99.90;;;;;;5014499;28;20057;-76
2023/12/06 06:44:35;;;;;;;15.65;6.13;;;3.80;99.90;;;;;;5014442;28;20058;-76
2023/12/06 06:47:00;;;;;;;21.27;6.07;;;3.80;99.90;;;;;;5015547;28;20519;-76
2023/12/06 06:49:26;;;;;;;14.32;5.57;;;3.70;99.90;;;;;;5014511;28;20472;-76
2023/12/06 06:51:51;;;;;;;16.42;5.35;;;3.80;99.90;;;;;;5014431;28;20022;-76
2023/12/06 06:54:17;;;;;;;14.00;5.90;;;3.80;99.90;;;;;;5015448;28;20366;-76
2023/12/06 06:56:43;;;;;;;15.85;6.68;;;3.80;99.90;;;;;;5015387;28;20034;-76
2023/12/06 06:59:08;;;;;;;18.45;5.70;;;3.70;99.90;;;;;;5015328;28;20485;-76
2023/12/06 07:01:34;;;;;;;15.73;6.50;;;3.80;99.90;;;;;;5013515;28;20025;-76
2023/12/06 07:03:59;;;;;;;16.58;4.70;;;3.80;99.90;;;;;;5015193;28;20592;-76
2023/12/06 07:06:25;;;;;;;15.90;5.78;;;3.80;99.90;;;;;;5015196;28;20105;-76
2023/12/06 07:08:50;;;;;;;14.52;6.43;;;3.70;99.90;;;;;;5013662;28;20054;-76
2023/12/06 07:11:16;;;;;;;15.52;6.38;;;3.80;99.90;;;;;;5014004;28;20026;-76
2023/12/06 07:13:42;;;;;;;12.23;5.07;;;3.80;99.90;;;;;;5015092;28;20049;-76
2023/12/06 07:16:10;;;;;;;12.13;5.28;;;3.80;99.90;;;;;;5015047;28;20508;-76
2023/12/06 07:18:35;;;;;;;13.73;4.60;;;3.70;99.90;;;;;;5015689;28;20022;-76
2023/12/06 07:21:01;;;;;;;16.65;5.13;;;3.80;99.90;;;;;;5013890;28;20037;-76
2023/12/06 07:23:27;;;;;;;14.13;5.68;;;3.80;99.90;;;;;;5015474;28;20033;-76
2023/12/06 07:25:53;;;;;;;23.98;6.47;;;3.80;99.90;;;;;;5015111;28;20117;-76
2023/12/06 07:28:19;;;;;;;13.18;5.10;;;3.80;99.90;;;;;;5015624;28;20505;-76
2023/12/06 07:30:44;;;;;;;9.43;4.88;;;3.80;99.90;;;;;;5014179;28;20028;-76
2023/12/06 07:33:10;;;;;;;14.63;5.55;;;3.80;99.90;;;;;;5015243;28;20014;-75
2023/12/06 07:35:36;;;;;;;15.27;5.18;;;3.80;99.90;;;;;;5013564;28;20072;-76
2023/12/06 07:38:04;;;;;;;13.32;6.00;;;3.80;99.90;;;;;;5014913;28;20104;-76
2023/12/06 07:40:30;;;;;;;12.38;5.28;;;3.70;99.90;;;;;;5014729;28;20022;-75
2023/12/06 07:42:55;;;;;;;15.10;5.32;;;3.80;99.90;;;;;;5015300;28;20036;-76
2023/12/06 07:45:21;;;;;;;17.67;5.72;;;3.80;99.90;;;;;;5014497;28;20117;-76
2023/12/06 07:47:48;;;;;;;15.35;5.15;;;3.80;99.90;;;;;;5014424;28;20034;-75
2023/12/06 07:50:13;;;;;;;16.92;5.50;;;3.80;99.90;;;;;;5013204;28;20117;-75
2023/12/06 07:52:39;;;;;;;10.75;4.85;;;3.80;99.90;;;;;;5014448;28;20097;-74
2023/12/06 07:55:06;;;;;;;14.18;5.18;;;3.70;99.90;;;;;;5014315;28;20079;-76
2023/12/06 07:57:35;;;;;;;12.55;4.78;;;3.70;99.90;;;;;;5014443;28;20026;-76
2023/12/06 08:00:01;;;;;;;15.60;5.35;;;3.70;99.90;;;;;;5014256;28;20482;-76
2023/12/06 08:02:26;;;;;;;12.93;5.55;;;3.70;99.90;;;;;;5013257;28;20021;-76
2023/12/06 08:04:52;;;;;;;12.73;5.25;;;3.70;99.90;;;;;;5014144;28;20493;-76
2023/12/06 08:07:17;;;;;;;18.83;5.93;;;3.70;99.90;;;;;;5013473;28;20032;-76
2023/12/06 08:09:46;;;;;;;12.95;5.30;;;3.70;99.90;;;;;;5012674;28;20026;-76
2023/12/06 08:12:15;;;;;;;12.65;5.13;;;3.70;99.90;;;;;;5014169;28;20050;-76
2023/12/06 08:14:40;;;;;;;19.67;5.30;;;3.70;99.90;;;;;;5012799;28;20022;-76
2023/12/06 08:17:06;;;;;;;11.48;4.65;;;3.70;99.90;;;;;;5013232;28;20494;-76
2023/12/06 08:19:31;;;;;;;11.32;4.20;;;3.60;99.90;;;;;;5013708;28;20076;-76
2023/12/06 08:21:57;;;;;;;10.45;4.40;;;3.70;99.90;;;;;;5015460;28;20040;-76
2023/12/06 08:24:23;;;;;;;15.60;4.38;;;3.70;99.90;;;;;;5014992;28;20024;-76
2023/12/06 08:26:50;;;;;;;13.13;4.55;;;3.70;99.90;;;;;;5013908;28;20404;-76
2023/12/06 08:29:16;;;;;;;15.20;4.68;;;3.70;99.90;;;;;;5015204;28;20085;-76
2023/12/06 08:31:42;;;;;;;13.73;4.78;;;3.70;99.90;;;;;;5013935;28;20029;-76
2023/12/06 08:34:08;;;;;;;12.77;4.80;;;3.70;99.90;;;;;;5014654;28;20045;-76
2023/12/06 08:36:33;;;;;;;17.60;4.75;;;3.80;99.90;;;;;;5013384;28;20172;-76
2023/12/06 08:38:59;;;;;;;9.77;3.60;;;3.80;99.90;;;;;;5013140;28;20038;-76
2023/12/06 08:41:24;;;;;;;10.95;3.83;;;3.80;99.90;;;;;;5014630;28;20040;-76
2023/12/06 08:43:50;;;;;;;15.00;4.22;;;3.80;99.90;;;;;;5014618;28;20049;-76
2023/12/06 08:46:15;;;;;;;12.85;4.32;;;3.80;99.90;;;;;;5012572;28;20030;-76
2023/12/06 08:48:41;;;;;;;11.75;4.53;;;3.70;99.90;;;;;;5012853;28;20018;-76
2023/12/06 08:51:10;;;;;;;10.48;4.10;;;3.70;99.90;;;;;;5013633;28;20137;-76
2023/12/06 08:53:36;;;;;;;9.18;4.38;;;3.60;99.90;;;;;;5013672;28;20018;-76
2023/12/06 08:56:01;;;;;;;13.40;4.90;;;3.60;99.90;;;;;;5014079;28;20072;-76
2023/12/06 08:58:27;;;;;;;14.65;4.57;;;3.50;99.90;;;;;;5012466;28;20021;-76
2023/12/06 09:00:53;;;;;;;13.88;4.30;;;3.50;99.90;;;;;;5013944;28;20029;-76
2023/12/06 09:03:19;;;;;;;11.60;4.10;;;3.50;99.90;;;;;;5014584;28;20030;-76
2023/12/06 09:05:45;;;;;;;13.70;4.32;;;3.60;99.90;;;;;;5014441;28;20030;-76
2023/12/06 09:08:11;;;;;;;7.95;3.45;;;3.60;99.90;;;;;;5014823;28;20397;-76
2023/12/06 09:10:38;;;;;;;11.48;4.57;;;3.70;99.90;;;;;;5014170;28;20034;-76
2023/12/06 09:13:03;;;;;;;24.35;4.93;;;3.80;99.90;;;;;;5014906;28;20030;-76
2023/12/06 09:15:29;;;;;;;7.47;3.30;;;3.90;99.90;;;;;;5014271;28;20145;-76
2023/12/06 09:17:54;;;;;;;12.63;4.68;;;4.10;99.90;;;;;;5014363;28;20034;-76
2023/12/06 09:20:20;;;;;;;8.77;3.10;;;4.30;99.90;;;;;;5014400;28;20053;-76
2023/12/06 09:22:46;;;;;;;11.57;3.55;;;4.50;99.90;;;;;;5014628;28;20076;-76
2023/12/06 09:25:11;;;;;;;8.30;3.45;;;4.70;99.90;;;;;;5014756;28;20474;-76
2023/12/06 09:27:37;;;;;;;8.88;3.58;;;4.80;99.90;;;;;;5016636;28;20014;-76
2023/12/06 09:30:03;;;;;;;10.70;3.70;;;4.90;99.90;;;;;;5017999;28;20032;-76
2023/12/06 09:32:29;;;;;;;10.60;3.00;;;4.90;99.90;;;;;;5016449;28;20017;-76
2023/12/06 09:34:55;;;;;;;8.88;3.95;;;4.90;99.90;;;;;;5016091;28;20028;-76
2023/12/06 09:37:20;;;;;;;10.23;3.63;;;4.90;99.90;;;;;;5016985;28;20120;-76
2023/12/06 09:39:46;;;;;;;17.00;4.65;;;4.90;99.90;;;;;;5016166;28;20022;-76
2023/12/06 09:42:12;;;;;;;9.05;3.58;;;4.90;99.90;;;;;;5017390;28;20022;-76
2023/12/06 09:44:37;;;;;;;14.00;3.55;;;4.90;99.90;;;;;;5016236;28;20018;-76
2023/12/06 09:47:04;;;;;;;12.35;3.38;;;4.90;99.90;;;;;;5017145;28;20018;-76
2023/12/06 09:49:30;;;;;;;7.53;3.28;;;4.80;99.90;;;;;;5017329;28;20462;-76
2023/12/06 09:52:10;;;;;;;10.18;3.42;;;4.90;99.90;;;;;;5016148;28;20084;-77
2023/12/06 09:54:39;;;;;;;12.25;3.22;;;4.90;99.90;;;;;;5016377;28;20478;-77
2023/12/06 09:57:05;;;;;;;10.00;3.45;;;5.00;99.90;;;;;;5015980;28;20053;-77
2023/12/06 09:59:31;;;;;;;7.40;2.78;;;5.00;99.90;;;;;;5017151;28;20528;-77
2023/12/06 10:01:56;;;;;;;10.30;3.40;;;5.10;99.90;;;;;;5017097;28;20485;-77
2023/12/06 10:04:22;;;;;;;11.57;3.88;;;5.10;99.90;;;;;;5016677;28;20021;-77
2023/12/06 10:06:49;;;;;;;8.00;2.97;;;5.10;99.90;;;;;;5015011;28;20156;-77
2023/12/06 10:09:16;;;;;;;15.68;4.10;;;5.10;99.90;;;;;;5016125;28;20030;-77
2023/12/06 10:11:41;;;;;;;8.18;3.13;;;5.10;99.90;;;;;;5014996;28;20025;-77
2023/12/06 10:14:19;;;;;;;13.18;3.42;;;5.10;99.90;;;;;;5016259;28;20026;-77
2023/12/06 10:16:46;;;;;;;12.32;2.50;;;5.20;99.90;;;;;;5016299;28;20053;-77
2023/12/06 10:19:22;;;;;;;9.70;3.97;;;5.20;99.90;;;;;;5016137;28;20408;-77
2023/12/06 10:21:49;;;;;;;8.55;3.33;;;5.20;99.90;;;;;;5016065;28;20492;-77
2023/12/06 10:24:14;;;;;;;12.07;3.88;;;5.20;99.90;;;;;;5014871;28;20046;-77
2023/12/06 10:26:40;;;;;;;9.32;2.83;;;5.20;99.90;;;;;;5014758;28;20512;-77
2023/12/06 10:29:06;;;;;;;10.48;3.08;;;5.20;99.90;;;;;;5014653;28;20485;-77
2023/12/06 10:31:45;;;;;;;11.75;3.42;;;5.20;99.90;;;;;;5016323;28;20018;-77
2023/12/06 10:34:11;;;;;;;16.48;4.47;;;5.40;99.90;;;;;;5015108;28;20113;-77
2023/12/06 10:36:37;;;;;;;6.93;2.83;;;5.50;99.90;;;;;;5015183;28;20034;-77
2023/12/06 10:39:08;;;;;;;7.95;3.22;;;5.70;99.90;;;;;;5016104;28;20401;-77
2023/12/06 10:41:35;;;;;;;8.68;3.13;;;6.00;99.90;;;;;;5016299;28;20017;-77
2023/12/06 10:44:02;;;;;;;8.57;2.90;;;6.50;99.90;;;;;;5016232;28;20033;-75
2023/12/06 10:46:29;;;;;;;8.48;3.10;;;6.50;99.90;;;;;;5016337;28;20105;-77
2023/12/06 10:48:56;;;;;;;12.25;3.97;;;6.90;99.90;;;;;;5014855;28;20022;-77
2023/12/06 10:51:24;;;;;;;10.70;3.70;;;6.90;99.90;;;;;;5015896;28;20026;-77
2023/12/06 10:53:54;;;;;;;9.43;2.28;;;6.90;99.90;;;;;;5015934;28;20021;-77
2023/12/06 10:56:21;;;;;;;12.68;2.50;;;6.80;99.90;;;;;;5014601;28;20116;-77
2023/12/06 10:58:48;;;;;;;6.55;2.97;;;6.60;99.90;;;;;;5015555;28;20033;-77
2023/12/06 11:01:15;;;;;;;9.38;3.55;;;6.50;99.90;;;;;;5014365;28;20484;-78
2023/12/06 11:03:40;;;;;;;10.25;2.97;;;6.50;99.90;;;;;;5015569;28;20030;-77
2023/12/06 11:06:24;;;;;;;8.65;3.83;;;6.40;99.90;;;;;;5014436;28;20030;-77
2023/12/06 11:09:02;;;;;;;10.93;3.33;;;6.30;99.90;;;;;;5016171;28;20025;-77
2023/12/06 11:11:53;;;;;;;11.02;2.72;;;6.30;99.90;;;;;;5015203;28;20033;-77
2023/12/06 11:14:30;;;;;;;14.35;3.30;;;6.30;99.90;;;;;;5014670;28;20045;-78
2023/12/06 11:17:31;;;;;;;7.22;3.65;;;6.20;99.90;;;;;;5014327;28;20069;-78
2023/12/06 11:19:57;;;;;;;10.02;3.28;;;6.20;99.90;;;;;;5014408;28;20034;-77
2023/12/06 11:22:23;;;;;;;9.25;2.70;;;6.10;99.90;;;;;;5015772;28;20057;-77
2023/12/06 11:24:50;;;;;;;8.07;2.75;;;6.00;99.90;;;;;;5014077;28;20026;-78
2023/12/06 11:27:15;;;;;;;12.50;3.35;;;6.00;99.90;;;;;;5013644;28;20084;-77
2023/12/06 11:29:42;;;;;;;8.35;3.03;;;5.90;99.90;;;;;;5015224;28;20018;-77
2023/12/06 11:32:13;;;;;;;9.50;3.25;;;5.90;99.90;;;;;;5014029;28;20073;-77
2023/12/06 11:34:42;;;;;;;9.80;3.17;;;5.90;99.90;;;;;;5015260;28;20028;-78
2023/12/06 11:37:17;;;;;;;;;;;6.00;99.90;;;;;;5016310;28;20125;-77
2023/12/06 11:40:17;;;;;;;7.90;3.00;;;5.90;99.90;;;;;;5013663;28;20288;-77
2023/12/06 11:42:57;;;;;;;7.72;2.83;;;6.00;99.90;;;;;;5015310;28;20022;-77
2023/12/06 11:45:26;;;;;;;3.95;1.73;;;6.00;99.90;;;;;;5014930;28;20026;-77
2023/12/06 11:47:52;;;;;;;14.43;2.83;;;6.00;99.90;;;;;;5014978;28;20469;-77
2023/12/06 11:50:19;;;;;;;7.10;2.22;;;6.00;99.90;;;;;;5013863;28;20026;-77
2023/12/06 11:52:48;;;;;;;5.22;1.60;;;6.00;99.90;;;;;;5013577;28;20113;-77
2023/12/06 11:55:13;;;;;;;;;;;6.00;99.90;;;;;;5014059;28;20014;-77
2023/12/06 11:58:01;;;;;;;7.82;2.22;;;6.10;99.90;;;;;;5014809;28;20266;-77
2023/12/06 12:00:30;;;;;;;5.93;2.05;;;6.30;99.90;;;;;;5013781;28;20169;-77
2023/12/06 12:03:02;;;;;;;7.50;2.08;;;6.40;99.90;;;;;;5014654;28;20381;-77
2023/12/06 12:05:28;;;;;;;5.82;2.05;;;6.60;99.90;;;;;;5012819;28;20034;-77
2023/12/06 12:07:54;;;;;;;10.38;2.83;;;6.70;99.90;;;;;;5014433;28;20041;-77
2023/12/06 12:10:20;;;;;;;7.13;2.72;;;6.80;99.90;;;;;;5012925;28;20036;-77
2023/12/06 12:12:48;;;;;;;9.32;2.25;;;7.00;99.90;;;;;;5014573;28;20436;-77
2023/12/06 12:15:18;;;;;;;5.40;2.15;;;7.20;99.90;;;;;;5014644;28;20018;-77
2023/12/06 12:17:45;;;;;;;5.55;1.85;;;7.50;99.90;;;;;;5014489;28;20022;-77
2023/12/06 12:20:12;;;;;;;6.82;1.33;;;7.60;99.90;;;;;;5013446;28;20445;-77
2023/12/06 12:22:48;;;;;;;6.65;1.83;;;7.90;99.90;;;;;;5013614;28;20067;-77
2023/12/06 12:25:15;;;;;;;5.35;1.52;;;7.90;99.90;;;;;;5014559;28;20529;-77
2023/12/06 12:27:42;;;;;;;7.50;1.80;;;8.00;99.90;;;;;;5015011;28;20033;-77
2023/12/06 12:30:09;;;;;;;9.48;1.80;;;8.10;99.90;;;;;;5014269;28;20026;-77
2023/12/06 12:32:38;;;;;;;4.93;1.30;;;8.10;99.90;;;;;;5014192;28;20048;-77
2023/12/06 12:35:05;;;;;;;5.53;1.65;;;8.10;99.90;;;;;;5013151;28;20041;-77
2023/12/06 12:37:31;;;;;;;5.53;1.45;;;8.00;99.90;;;;;;5014975;28;20093;-77
2023/12/06 12:39:56;;;;;;;6.35;1.42;;;8.10;99.90;;;;;;5014561;28;20054;-77
2023/12/06 12:42:22;;;;;;;6.00;1.48;;;8.00;99.90;;;;;;5013607;28;20429;-77
2023/12/06 12:44:48;;;;;;;4.97;1.10;;;8.10;99.90;;;;;;5014365;28;20389;-77